Ulan Bator, Mongolia
Current Conditions -  °F | °C
As of 6:30 AM on Thursday 23 Oct 2014 (Local Time) from ZMUB Reporting Station
Scattered Clouds Scattered Clouds  
Wind Chill: -4°   Ceiling: Unl
Heat Index: -4°   Visibility: 6mi
Dew Point: -8°   Wind: 0mph
Humidity: 74%   Direction: NA
Pressure: 29.83"   Gusts: NA
Location:  47.92°N, 106.91°E
Report Text: ZMUB 222230Z 00000MPS 9999 SCT100 M04/M08 Q1010 NOSIG RMK QFE651.1 73 NT
Loading
Personal Weather Stations






























Interactive Weather Map New forecast layout! Learn more

10-Day Weather Forecast

Advertisements
Track Severe Weather on mobile